PWSweather.com
Personal Weather Stations
Station Observations
KCTHAMDEN
Dunbar Hill, Hamden, CT 06514

Dunbar HillHamden, CT 06514

Lat: 41.365437, Lon: -72.956532

Elevation: 200

Station Type: Davis Vantage Pro2+

www.hamdenweather.com

High Low Average
Temperature 83.3°F28.5°C 60.2°F15.7°C 71.2°F21.8°C
Dew Point 72.1°F22.3°C 58.8°F14.9°C 66.6°F19.2°C
Winds 3.0 mph 4.8 kmh Calm Calm Calm SECalm SE
Wind Gusts 6.0 mph9.7 kmh -- 1.0 mph1.6 kmh
Humidity 97% 63% 86%
Pressure 30.30 in1026.1 mb 30.19 in1022.4 mb -
Precipitation 0.00 in0.0 mm - -
Hour Temp Dew Point Humidity Winds Wind Gusts Pressure Precip Precip Rate Daily Precip Total
12:00 AM 63.4°F17.4°C 60.4°F15.8°C 90% Calm Calm -- 30.28 in1025.4 mb - 0.00 in0.0 mm 0.00 in0.0 mm
12:15 AM 63.1°F17.3°C 60.4°F15.8°C 91% Calm Calm -- 30.28 in1025.4 mb - 0.00 in0.0 mm 0.00 in0.0 mm
12:30 AM 62.6°F17.0°C 59.9°F15.5°C 91% Calm Calm -- 30.28 in1025.4 mb - 0.00 in0.0 mm 0.00 in0.0 mm
12:45 AM 62.3°F16.8°C 59.6°F15.3°C 91% Calm Calm -- 30.27 in1025.1 mb - 0.00 in0.0 mm 0.00 in0.0 mm
01:00 AM 61.9°F16.6°C 59.2°F15.1°C 91% Calm Calm -- 30.27 in1025.1 mb - 0.00 in0.0 mm 0.00 in0.0 mm
01:15 AM 61.6°F16.4°C 59.3°F15.2°C 92% Calm Calm -- 30.27 in1025.1 mb - 0.00 in0.0 mm 0.00 in0.0 mm
01:30 AM 61.5°F16.4°C 59.2°F15.1°C 92% Calm Calm -- 30.28 in1025.4 mb - 0.00 in0.0 mm 0.00 in0.0 mm
01:45 AM 61.5°F16.4°C 59.5°F15.3°C 93% Calm Calm -- 30.27 in1025.1 mb - 0.00 in0.0 mm 0.00 in0.0 mm
02:00 AM 61.4°F16.3°C 59.4°F15.2°C 93% Calm Calm -- 30.27 in1025.1 mb - 0.00 in0.0 mm 0.00 in0.0 mm
02:15 AM 61.4°F16.3°C 59.7°F15.4°C 94% Calm Calm -- 30.27 in1025.1 mb - 0.00 in0.0 mm 0.00 in0.0 mm
02:30 AM 61.3°F16.3°C 59.6°F15.3°C 94% Calm Calm -- 30.27 in1025.1 mb - 0.00 in0.0 mm 0.00 in0.0 mm
02:45 AM 61.2°F16.2°C 59.5°F15.3°C 94% Calm Calm -- 30.27 in1025.1 mb - 0.00 in0.0 mm 0.00 in0.0 mm
03:00 AM 61.4°F16.3°C 59.7°F15.4°C 94% Calm Calm -- 30.27 in1025.1 mb - 0.00 in0.0 mm 0.00 in0.0 mm
03:15 AM 61.4°F16.3°C 60.0°F15.6°C 95% Calm Calm -- 30.27 in1025.1 mb - 0.00 in0.0 mm 0.00 in0.0 mm
03:30 AM 61.5°F16.4°C 60.1°F15.6°C 95% Calm Calm -- 30.26 in1024.7 mb - 0.00 in0.0 mm 0.00 in0.0 mm
03:45 AM 61.6°F16.4°C 60.1°F15.6°C 95% Calm Calm -- 30.26 in1024.7 mb - 0.00 in0.0 mm 0.00 in0.0 mm
04:00 AM 61.4°F16.3°C 60.0°F15.6°C 95% Calm Calm -- 30.26 in1024.7 mb - 0.00 in0.0 mm 0.00 in0.0 mm
04:15 AM 61.5°F16.4°C 60.1°F15.6°C 95% Calm Calm -- 30.26 in1024.7 mb - 0.00 in0.0 mm 0.00 in0.0 mm
04:30 AM 61.4°F16.3°C 59.9°F15.5°C 95% Calm Calm -- 30.26 in1024.7 mb - 0.00 in0.0 mm 0.00 in0.0 mm
04:45 AM 61.2°F16.2°C 59.8°F15.4°C 95% Calm Calm -- 30.26 in1024.7 mb - 0.00 in0.0 mm 0.00 in0.0 mm
05:00 AM 61.0°F16.1°C 59.6°F15.3°C 95% Calm Calm -- 30.26 in1024.7 mb - 0.00 in0.0 mm 0.00 in0.0 mm
05:15 AM 60.7°F15.9°C 59.3°F15.2°C 95% Calm Calm -- 30.26 in1024.7 mb - 0.00 in0.0 mm 0.00 in0.0 mm
05:30 AM 60.5°F15.8°C 59.1°F15.1°C 95% Calm Calm -- 30.26 in1024.7 mb - 0.00 in0.0 mm 0.00 in0.0 mm
05:45 AM 60.4°F15.8°C 59.0°F15.0°C 95% Calm Calm -- 30.27 in1025.1 mb - 0.00 in0.0 mm 0.00 in0.0 mm
06:00 AM 60.2°F15.7°C 58.8°F14.9°C 95% Calm Calm -- 30.26 in1024.7 mb - 0.00 in0.0 mm 0.00 in0.0 mm
06:15 AM 60.5°F15.8°C 59.4°F15.2°C 96% Calm Calm -- 30.27 in1025.1 mb - 0.00 in0.0 mm 0.00 in0.0 mm
06:30 AM 60.5°F15.8°C 59.4°F15.2°C 96% Calm Calm -- 30.28 in1025.4 mb - 0.00 in0.0 mm 0.00 in0.0 mm
06:45 AM 60.6°F15.9°C 59.5°F15.3°C 96% Calm Calm -- 30.28 in1025.4 mb - 0.00 in0.0 mm 0.00 in0.0 mm
07:00 AM 60.7°F15.9°C 59.6°F15.3°C 96% Calm Calm -- 30.28 in1025.4 mb - 0.00 in0.0 mm 0.00 in0.0 mm
07:15 AM 60.7°F15.9°C 59.6°F15.3°C 96% Calm Calm -- 30.29 in1025.7 mb - 0.00 in0.0 mm 0.00 in0.0 mm
07:30 AM 61.5°F16.4°C 60.6°F15.9°C 97% Calm Calm -- 30.29 in1025.7 mb - 0.00 in0.0 mm 0.00 in0.0 mm
07:45 AM 62.6°F17.0°C 61.7°F16.5°C 97% Calm Calm -- 30.29 in1025.7 mb - 0.00 in0.0 mm 0.00 in0.0 mm
08:00 AM 63.9°F17.7°C 63.0°F17.2°C 97% Calm Calm -- 30.29 in1025.7 mb - 0.00 in0.0 mm 0.00 in0.0 mm
08:15 AM 65.7°F18.7°C 64.8°F18.2°C 97% Calm Calm -- 30.29 in1025.7 mb - 0.00 in0.0 mm 0.00 in0.0 mm
08:30 AM 66.9°F19.4°C 66.1°F18.9°C 97% Calm Calm -- 30.30 in1026.1 mb - 0.00 in0.0 mm 0.00 in0.0 mm
08:45 AM 68.6°F20.3°C 67.7°F19.8°C 97% 0.5 mph ESE0.8 kmh ESE 3.0 mph4.8 kmh 30.30 in1026.1 mb - 0.00 in0.0 mm 0.00 in0.0 mm
09:00 AM 70.7°F21.5°C 69.2°F20.7°C 95% 1.0 mph E1.6 kmh E 2.0 mph3.2 kmh 30.30 in1026.1 mb - 0.00 in0.0 mm 0.00 in0.0 mm
09:15 AM 72.7°F22.6°C 69.2°F20.7°C 89% 2.1 mph E3.4 kmh E 4.0 mph6.4 kmh 30.29 in1025.7 mb - 0.00 in0.0 mm 0.00 in0.0 mm
09:30 AM 74.1°F23.4°C 68.6°F20.3°C 83% 0.5 mph E0.8 kmh E 2.0 mph3.2 kmh 30.30 in1026.1 mb - 0.00 in0.0 mm 0.00 in0.0 mm
09:45 AM 74.9°F23.8°C 68.7°F20.4°C 81% 1.5 mph NE2.4 kmh NE 2.0 mph3.2 kmh 30.30 in1026.1 mb - 0.00 in0.0 mm 0.00 in0.0 mm
10:00 AM 75.7°F24.3°C 68.0°F20.0°C 77% 2.0 mph E3.2 kmh E 3.0 mph4.8 kmh 30.30 in1026.1 mb - 0.00 in0.0 mm 0.00 in0.0 mm
10:15 AM 75.5°F24.2°C 68.5°F20.3°C 79% 0.8 mph ESE1.3 kmh ESE 1.0 mph1.6 kmh 30.29 in1025.7 mb - 0.00 in0.0 mm 0.00 in0.0 mm
10:30 AM 75.8°F24.3°C 68.4°F20.2°C 78% 1.5 mph SSE2.4 kmh SSE 5.0 mph8.0 kmh 30.29 in1025.7 mb - 0.00 in0.0 mm 0.00 in0.0 mm
10:45 AM 76.0°F24.4°C 68.6°F20.3°C 78% 0.4 mph SSW0.6 kmh SSW 1.0 mph1.6 kmh 30.29 in1025.7 mb - 0.00 in0.0 mm 0.00 in0.0 mm
11:00 AM 76.1°F24.5°C 68.3°F20.2°C 77% 1.1 mph SSW1.8 kmh SSW 3.0 mph4.8 kmh 30.29 in1025.7 mb - 0.00 in0.0 mm 0.00 in0.0 mm
11:15 AM 76.2°F24.6°C 68.5°F20.3°C 77% 1.8 mph E2.9 kmh E 6.0 mph9.7 kmh 30.28 in1025.4 mb - 0.00 in0.0 mm 0.00 in0.0 mm
11:30 AM 76.5°F24.7°C 69.5°F20.8°C 79% Calm Calm 1.0 mph1.6 kmh 30.28 in1025.4 mb - 0.00 in0.0 mm 0.00 in0.0 mm
11:45 AM 77.2°F25.1°C 69.4°F20.8°C 77% 3.0 mph E4.8 kmh E 4.0 mph6.4 kmh 30.27 in1025.1 mb - 0.00 in0.0 mm 0.00 in0.0 mm
12:00 PM 77.2°F25.1°C 69.5°F20.8°C 77% 1.8 mph E2.9 kmh E 3.0 mph4.8 kmh 30.27 in1025.1 mb - 0.00 in0.0 mm 0.00 in0.0 mm
12:15 PM 77.8°F25.4°C 69.6°F20.9°C 76% 1.1 mph S1.8 kmh S 2.0 mph3.2 kmh 30.26 in1024.7 mb - 0.00 in0.0 mm 0.00 in0.0 mm
12:30 PM 78.3°F25.7°C 69.7°F20.9°C 75% 1.8 mph SE2.9 kmh SE 3.0 mph4.8 kmh 30.26 in1024.7 mb - 0.00 in0.0 mm 0.00 in0.0 mm
12:45 PM 78.4°F25.8°C 70.2°F21.2°C 76% 2.2 mph SE3.5 kmh SE 3.0 mph4.8 kmh 30.26 in1024.7 mb - 0.00 in0.0 mm 0.00 in0.0 mm
01:00 PM 78.9°F26.1°C 69.9°F21.1°C 74% 1.3 mph SSW2.1 kmh SSW 2.0 mph3.2 kmh 30.25 in1024.4 mb - 0.00 in0.0 mm 0.00 in0.0 mm
01:15 PM 79.8°F26.6°C 71.2°F21.8°C 75% 1.5 mph SW2.4 kmh SW 4.0 mph6.4 kmh 30.25 in1024.4 mb - 0.00 in0.0 mm 0.00 in0.0 mm
01:30 PM 80.6°F27.0°C 71.1°F21.7°C 73% 2.1 mph E3.4 kmh E 4.0 mph6.4 kmh 30.24 in1024.0 mb - 0.00 in0.0 mm 0.00 in0.0 mm
01:45 PM 81.2°F27.3°C 71.3°F21.8°C 72% 1.9 mph ESE3.1 kmh ESE 3.0 mph4.8 kmh 30.24 in1024.0 mb - 0.00 in0.0 mm 0.00 in0.0 mm
02:00 PM 81.6°F27.6°C 70.4°F21.3°C 69% 0.2 mph SE0.3 kmh SE 2.0 mph3.2 kmh 30.24 in1024.0 mb - 0.00 in0.0 mm 0.00 in0.0 mm
02:15 PM 82.3°F27.9°C 69.8°F21.0°C 66% 0.5 mph E0.8 kmh E 1.0 mph1.6 kmh 30.23 in1023.7 mb - 0.00 in0.0 mm 0.00 in0.0 mm
02:30 PM 82.9°F28.3°C 69.0°F20.6°C 63% 2.4 mph E3.9 kmh E 3.0 mph4.8 kmh 30.23 in1023.7 mb - 0.00 in0.0 mm 0.00 in0.0 mm
02:45 PM 83.3°F28.5°C 71.6°F22.0°C 68% 1.9 mph ESE3.1 kmh ESE 3.0 mph4.8 kmh 30.23 in1023.7 mb - 0.00 in0.0 mm 0.00 in0.0 mm
03:00 PM 82.5°F28.1°C 71.3°F21.8°C 69% 0.8 mph SSE1.3 kmh SSE 3.0 mph4.8 kmh 30.22 in1023.4 mb - 0.00 in0.0 mm 0.00 in0.0 mm
03:15 PM 82.0°F27.8°C 72.1°F22.3°C 72% Calm Calm -- 30.23 in1023.7 mb - 0.00 in0.0 mm 0.00 in0.0 mm
03:30 PM 81.3°F27.4°C 71.4°F21.9°C 72% Calm Calm -- 30.23 in1023.7 mb - 0.00 in0.0 mm 0.00 in0.0 mm
03:45 PM 80.5°F26.9°C 71.4°F21.9°C 74% 1.2 mph S1.9 kmh S 1.0 mph1.6 kmh 30.22 in1023.4 mb - 0.00 in0.0 mm 0.00 in0.0 mm
04:00 PM 80.0°F26.7°C 71.4°F21.9°C 75% 0.9 mph NE1.4 kmh NE 2.0 mph3.2 kmh 30.22 in1023.4 mb - 0.00 in0.0 mm 0.00 in0.0 mm
04:15 PM 79.8°F26.6°C 71.2°F21.8°C 75% 0.1 mph SSW0.2 kmh SSW 2.0 mph3.2 kmh 30.22 in1023.4 mb - 0.00 in0.0 mm 0.00 in0.0 mm
04:30 PM 79.5°F26.4°C 70.9°F21.6°C 75% 0.1 mph SE0.2 kmh SE 1.0 mph1.6 kmh 30.22 in1023.4 mb - 0.00 in0.0 mm 0.00 in0.0 mm
04:45 PM 79.6°F26.4°C 71.0°F21.7°C 75% 0.5 mph SE0.8 kmh SE 1.0 mph1.6 kmh 30.21 in1023.0 mb - 0.00 in0.0 mm 0.00 in0.0 mm
05:00 PM 79.3°F26.3°C 71.1°F21.7°C 76% 0.1 mph SSE0.2 kmh SSE 4.0 mph6.4 kmh 30.21 in1023.0 mb - 0.00 in0.0 mm 0.00 in0.0 mm
05:15 PM 79.1°F26.2°C 71.3°F21.8°C 77% Calm Calm -- 30.21 in1023.0 mb - 0.00 in0.0 mm 0.00 in0.0 mm
05:30 PM 78.8°F26.0°C 71.4°F21.9°C 78% Calm Calm -- 30.21 in1023.0 mb - 0.00 in0.0 mm 0.00 in0.0 mm
05:45 PM 78.5°F25.8°C 71.8°F22.1°C 80% Calm Calm -- 30.21 in1023.0 mb - 0.00 in0.0 mm 0.00 in0.0 mm
06:00 PM 78.2°F25.7°C 71.2°F21.8°C 79% Calm Calm -- 30.20 in1022.7 mb - 0.00 in0.0 mm 0.00 in0.0 mm
06:15 PM 77.7°F25.4°C 71.1°F21.7°C 80% 0.3 mph ESE0.5 kmh ESE 3.0 mph4.8 kmh 30.20 in1022.7 mb - 0.00 in0.0 mm 0.00 in0.0 mm
06:30 PM 77.3°F25.2°C 70.6°F21.4°C 80% Calm Calm 1.0 mph1.6 kmh 30.19 in1022.4 mb - 0.00 in0.0 mm 0.00 in0.0 mm
06:45 PM 76.8°F24.9°C 70.5°F21.4°C 81% Calm Calm -- 30.19 in1022.4 mb - 0.00 in0.0 mm 0.00 in0.0 mm
07:00 PM 76.2°F24.6°C 70.7°F21.5°C 83% Calm Calm -- 30.19 in1022.4 mb - 0.00 in0.0 mm 0.00 in0.0 mm
07:15 PM 75.7°F24.3°C 70.5°F21.4°C 84% Calm Calm -- 30.19 in1022.4 mb - 0.00 in0.0 mm 0.00 in0.0 mm
07:30 PM 75.1°F23.9°C 70.3°F21.3°C 85% Calm Calm -- 30.19 in1022.4 mb - 0.00 in0.0 mm 0.00 in0.0 mm
07:45 PM 74.2°F23.4°C 69.7°F20.9°C 86% Calm Calm -- 30.20 in1022.7 mb - 0.00 in0.0 mm 0.00 in0.0 mm
08:00 PM 73.6°F23.1°C 69.5°F20.8°C 87% Calm Calm -- 30.20 in1022.7 mb - 0.00 in0.0 mm 0.00 in0.0 mm
08:15 PM 73.0°F22.8°C 69.6°F20.9°C 89% Calm Calm -- 30.21 in1023.0 mb - 0.00 in0.0 mm 0.00 in0.0 mm
08:30 PM 72.7°F22.6°C 69.6°F20.9°C 90% Calm Calm -- 30.21 in1023.0 mb - 0.00 in0.0 mm 0.00 in0.0 mm
08:45 PM 72.4°F22.4°C 69.6°F20.9°C 91% Calm Calm -- 30.21 in1023.0 mb - 0.00 in0.0 mm 0.00 in0.0 mm
09:00 PM 72.2°F22.3°C 69.4°F20.8°C 91% Calm Calm -- 30.22 in1023.4 mb - 0.00 in0.0 mm 0.00 in0.0 mm
09:15 PM 71.9°F22.2°C 69.1°F20.6°C 91% Calm Calm -- 30.22 in1023.4 mb - 0.00 in0.0 mm 0.00 in0.0 mm
09:30 PM 71.7°F22.1°C 69.3°F20.7°C 92% Calm Calm -- 30.23 in1023.7 mb - 0.00 in0.0 mm 0.00 in0.0 mm
09:45 PM 71.6°F22.0°C 69.5°F20.8°C 93% Calm Calm -- 30.23 in1023.7 mb - 0.00 in0.0 mm 0.00 in0.0 mm
10:00 PM 71.5°F21.9°C 69.4°F20.8°C 93% Calm Calm -- 30.23 in1023.7 mb - 0.00 in0.0 mm 0.00 in0.0 mm
10:15 PM 71.3°F21.8°C 69.2°F20.7°C 93% Calm Calm -- 30.24 in1024.0 mb - 0.00 in0.0 mm 0.00 in0.0 mm
10:30 PM 71.1°F21.7°C 69.0°F20.6°C 93% Calm Calm -- 30.24 in1024.0 mb - 0.00 in0.0 mm 0.00 in0.0 mm
10:45 PM 70.8°F21.6°C 68.7°F20.4°C 93% Calm Calm -- 30.24 in1024.0 mb - 0.00 in0.0 mm 0.00 in0.0 mm
11:00 PM 70.6°F21.4°C 68.8°F20.4°C 94% Calm Calm -- 30.24 in1024.0 mb - 0.00 in0.0 mm 0.00 in0.0 mm
11:15 PM 70.4°F21.3°C 68.6°F20.3°C 94% Calm Calm -- 30.24 in1024.0 mb - 0.00 in0.0 mm 0.00 in0.0 mm
11:30 PM 70.1°F21.2°C 68.3°F20.2°C 94% Calm Calm -- 30.24 in1024.0 mb - 0.00 in0.0 mm 0.00 in0.0 mm
11:45 PM 69.9°F21.1°C 68.1°F20.1°C 94% Calm Calm -- 30.24 in1024.0 mb - 0.00 in0.0 mm 0.00 in0.0 mm